Gerlach, NV (89412)

5:20 PM PDT on August 03, 2015 (GMT -0700)
Alturas Municipal | | Change Station
CLOSE
Current Station
Airport
Location: Alturas,
Elevation: 4373 ft
Nearby Weather Stations

Elev 4373 ft 41.49 °N, 120.56 °W | Updated 25 minutes ago

Clear
Clear
89 °F
Feels Like 89 °F
N
12
Wind Variable Wind from West
Gusts 18 mph

Today
High -- | Low -- °F
--% Chance of Precip.
Yesterday
High -- | Low -- °F
Precip. -- in
5:55 AM 8:13 PM
Waning Gibbous, 83% visible
Pressure 29.84 in
Visibility 10.0 miles
Clouds Clear
Dew Point 30 °F
Humidity 12%
Rainfall 0.00 in
Snow Depth Not available.
UV 5 out of 12
Pollen 6.40 out of 12
Air Quality Not available.
Flu Activity Not available.
METAR KAAT 032355Z AUTO 27010G16KT 10SM CLR 32/M01 A2999 RMK AO2 SLP105 T03171011 10322 20239 56012

More Conditions Fewer Conditions

Pressure 29.84 in
Visibility 10.0 miles
Clouds Clear
Dew Point 30 °F
Humidity 12%
Rainfall 0.00 in
Snow Depth Not available.
UV 5 out of 12
Pollen 6.40 out of 12
Air Quality Not available.
Flu Activity Not available.
METAR KAAT 032355Z AUTO 27010G16KT 10SM CLR 32/M01 A2999 RMK AO2 SLP105 T03171011 10322 20239 56012

More Conditions Fewer Conditions

10-Day Weather Forecast

×

Almanac

Astronomy

Aug. 03, 2015 Rise Set
Actual Time
Civil Twilight
Nautical Twilight
Astronomical Twilight
Moon
Length of Visible Light
Length of Day
Tomorrow will be .
, % of the Moon is Illuminated

Today's Extremes

State Highs State Lows

Community

WunderPhotos

Upload Photos

1,843,793 photos uploaded!

WunderBlogs® & News

Nearby

Air Quality

  Air Quality AQ Index Pollutant
Not available.

Snow Depth

Station Depth Elevation

Earthquake Activity

City Distance Mag. Time & Date
Minimum magnitude displayed is 2.5.

Coastal Water Temperatures

Place Temperature

Stations

Nearby Weather Stations

Station Location Temp. Windchill Dew Point Humidity Wind Precip. Elev Updated Type